Wednesday, August 15, 2018, 3:44 AM CDT
Back to Local

KGYY, Gary Regional

Location: Gary, IN, United States Lat: 41.617
Local Time: 3:44 AM CDT ( 8:44 GMT) Lon: -87.417
Time Zone: US/Central Elev: 590 ft

Show me the last for .
Show Coded

Time T Td Feel RH Dir Speed Gust Alt SLP Vis Weather Sky Remarks
2018-08-15 03:35 70 67 76 88 - Calm - 29.97 - 10 CLR None
2018-08-15 03:15 73 67 77 82 - Calm - 29.97 - 10 CLR None
2018-08-15 02:55 71 67 76 86 - Calm - 29.96 - 10 CLR None
2018-08-15 02:35 70 67 76 90 - Calm - 29.95 - 10 CLR None
2018-08-15 02:15 71 66 76 85 - Calm - 29.95 - 10 CLR None
2018-08-15 01:55 72 66 76 81 - Calm - 29.94 - 10 CLR None
2018-08-15 01:35 73 66 77 79 - Calm - 29.95 - 10 CLR None
2018-08-15 01:15 73 65 77 76 - Calm - 29.95 - 10 CLR None
2018-08-15 00:55 74 66 77 76 - Calm - 29.95 - 10 CLR 6-hr Min Temp (1am): 69.3°F
6-hr Max Temp (1am): 83.7°F
24-hr Min Temp (1am): 62.1°F
24-hr Max Temp (1am): 88.7°F
2018-08-15 00:35 72 67 76 84 - Calm - 29.96 - 10 CLR None
2018-08-15 00:15 71 66 76 85 - Calm - 29.96 - 10 CLR None
2018-08-14 23:55 70 66 - 88 - Calm - 29.96 - 10 CLR None
2018-08-14 23:35 70 66 - 88 - Calm - 29.97 - 10 CLR None
2018-08-14 23:15 71 67 76 87 - Calm - 29.97 - 10 CLR None
2018-08-14 22:55 73 66 77 79 - Calm - 29.97 - 10 CLR None
2018-08-14 22:35 73 67 77 81 - Calm - 29.97 - 10 CLR None
2018-08-14 22:15 76 65 79 68 - Calm - 29.98 - 10 CLR None
2018-08-14 21:45 79 63 81 57 180° 3 - 29.98 - 10 BKN250 None
2018-08-14 20:45 81 63 82 54 190° 3 - 29.96 - 10 BKN250 None
2018-08-14 19:45 82 61 83 48 180° 5 - 29.95 - 10 BKN250 None
2018-08-14 18:45 84 61 85 45 Variable 3 - 29.95 - 10 FEW120 BKN250 None
2018-08-14 17:45 86 59 86 40 Variable 7 - 29.96 - 10 SCT055 OVC250 None
2018-08-14 16:45 88 61 89 40 Variable 5 - 29.95 - 10 SCT055 BKN250 None
2018-08-14 15:45 86 59 86 40 180° 5 - 29.97 - 10 SCT060 BKN250 None
2018-08-14 14:45 86 59 86 40 230° 8 - 29.98 - 10 SCT060 BKN250 None
2018-08-14 13:45 88 57 - 35 230° 5 - 30.00 - 10 SCT050 None
2018-08-14 12:45 86 57 - 37 230° 6 - 30.00 - 10 SCT050 None
2018-08-14 11:45 86 54 - 33 - Calm - 30.01 - 10 FEW050 None
2018-08-14 10:45 84 61 85 45 - Calm - 30.02 - 10 FEW050 None
2018-08-14 09:45 82 64 85 54 230° 5 - 30.02 - 10 CLR None
2018-08-14 08:45 77 66 80 69 - Calm - 30.02 - 10 CLR None
2018-08-14 07:45 72 66 76 83 - Calm - 30.02 - 10 CLR None
2018-08-14 06:45 68 64 - 88 - Calm - 30.02 - 10 CLR None
2018-08-14 05:45 64 63 - 93 - Calm - 30.01 - 10 CLR None
2018-08-14 04:45 63 63 - 100 - Calm - 30.00 - 10 CLR None
2018-08-14 04:15 64 63 - 97 - Calm - 30.00 - 5 BR CLR None
2018-08-14 03:55 63 61 - 95 - Calm - 30.00 - 5 BR CLR None

Support USWX by starting your Amazon purchase here.